sensor_id;sensor_type;location;lat;lon;timestamp;P1;durP1;ratioP1;P2;durP2;ratioP2
80270;SDS011;69573;45.560;10.200;2023-08-24T00:00:21;13.68;;;12.48;;
80270;SDS011;69573;45.560;10.200;2023-08-24T00:02:48;13.50;;;12.30;;
80270;SDS011;69573;45.560;10.200;2023-08-24T00:05:14;13.73;;;12.40;;
80270;SDS011;69573;45.560;10.200;2023-08-24T00:07:41;13.38;;;12.18;;
80270;SDS011;69573;45.560;10.200;2023-08-24T00:10:07;14.57;;;12.02;;
80270;SDS011;69573;45.560;10.200;2023-08-24T00:12:33;15.13;;;12.57;;
80270;SDS011;69573;45.560;10.200;2023-08-24T00:15:01;13.15;;;11.82;;
80270;SDS011;69573;45.560;10.200;2023-08-24T00:17:28;13.65;;;12.50;;
80270;SDS011;69573;45.560;10.200;2023-08-24T00:19:54;13.95;;;12.65;;
80270;SDS011;69573;45.560;10.200;2023-08-24T00:22:20;14.95;;;13.07;;
80270;SDS011;69573;45.560;10.200;2023-08-24T00:24:46;13.85;;;12.07;;
80270;SDS011;69573;45.560;10.200;2023-08-24T00:27:13;13.25;;;11.95;;
80270;SDS011;69573;45.560;10.200;2023-08-24T00:29:43;14.65;;;12.25;;
80270;SDS011;69573;45.560;10.200;2023-08-24T00:32:10;14.07;;;12.30;;
80270;SDS011;69573;45.560;10.200;2023-08-24T00:34:36;13.93;;;12.63;;
80270;SDS011;69573;45.560;10.200;2023-08-24T00:37:03;13.13;;;11.90;;
80270;SDS011;69573;45.560;10.200;2023-08-24T00:39:29;13.43;;;12.25;;
80270;SDS011;69573;45.560;10.200;2023-08-24T00:41:56;13.73;;;12.48;;
80270;SDS011;69573;45.560;10.200;2023-08-24T00:44:22;13.77;;;12.38;;
80270;SDS011;69573;45.560;10.200;2023-08-24T00:46:51;12.98;;;11.88;;
80270;SDS011;69573;45.560;10.200;2023-08-24T00:49:18;13.32;;;12.15;;
80270;SDS011;69573;45.560;10.200;2023-08-24T00:51:44;14.20;;;12.38;;
80270;SDS011;69573;45.560;10.200;2023-08-24T00:54:11;13.30;;;12.00;;
80270;SDS011;69573;45.560;10.200;2023-08-24T00:56:37;14.65;;;13.25;;
80270;SDS011;69573;45.560;10.200;2023-08-24T00:59:04;14.73;;;13.43;;
80270;SDS011;69573;45.560;10.200;2023-08-24T01:01:30;13.00;;;11.95;;
80270;SDS011;69573;45.560;10.200;2023-08-24T01:03:57;14.68;;;12.32;;
80270;SDS011;69573;45.560;10.200;2023-08-24T01:06:23;13.90;;;12.73;;
80270;SDS011;69573;45.560;10.200;2023-08-24T01:08:49;15.48;;;12.48;;
80270;SDS011;69573;45.560;10.200;2023-08-24T01:14:16;13.75;;;12.35;;
80270;SDS011;69573;45.560;10.200;2023-08-24T01:16:39;13.65;;;12.23;;
80270;SDS011;69573;45.560;10.200;2023-08-24T01:19:07;14.45;;;12.90;;
80270;SDS011;69573;45.560;10.200;2023-08-24T01:21:37;14.15;;;12.75;;
80270;SDS011;69573;45.560;10.200;2023-08-24T01:24:09;13.52;;;12.18;;
80270;SDS011;69573;45.560;10.200;2023-08-24T01:26:36;14.00;;;12.73;;
80270;SDS011;69573;45.560;10.200;2023-08-24T01:29:03;13.65;;;12.40;;
80270;SDS011;69573;45.560;10.200;2023-08-24T01:31:30;14.85;;;13.55;;
80270;SDS011;69573;45.560;10.200;2023-08-24T01:33:56;15.10;;;13.68;;
80270;SDS011;69573;45.560;10.200;2023-08-24T01:36:23;14.02;;;12.57;;
80270;SDS011;69573;45.560;10.200;2023-08-24T01:39:02;13.80;;;12.55;;
80270;SDS011;69573;45.560;10.200;2023-08-24T01:41:35;13.07;;;11.82;;
80270;SDS011;69573;45.560;10.200;2023-08-24T01:44:08;14.52;;;13.13;;
80270;SDS011;69573;45.560;10.200;2023-08-24T01:46:36;14.40;;;13.05;;
80270;SDS011;69573;45.560;10.200;2023-08-24T01:49:03;13.00;;;11.80;;
80270;SDS011;69573;45.560;10.200;2023-08-24T01:51:31;13.55;;;12.13;;
80270;SDS011;69573;45.560;10.200;2023-08-24T01:53:57;14.25;;;12.73;;
80270;SDS011;69573;45.560;10.200;2023-08-24T01:56:24;13.30;;;12.00;;
80270;SDS011;69573;45.560;10.200;2023-08-24T01:58:51;14.05;;;12.75;;
80270;SDS011;69573;45.560;10.200;2023-08-24T02:01:17;14.27;;;12.88;;
80270;SDS011;69573;45.560;10.200;2023-08-24T02:03:44;14.65;;;12.80;;
80270;SDS011;69573;45.560;10.200;2023-08-24T02:06:12;13.60;;;12.20;;
80270;SDS011;69573;45.560;10.200;2023-08-24T02:08:41;14.02;;;12.52;;
80270;SDS011;69573;45.560;10.200;2023-08-24T02:11:09;13.48;;;12.32;;
80270;SDS011;69573;45.560;10.200;2023-08-24T02:13:36;13.50;;;12.07;;
80270;SDS011;69573;45.560;10.200;2023-08-24T02:16:06;13.32;;;12.18;;
80270;SDS011;69573;45.560;10.200;2023-08-24T02:18:32;13.98;;;12.60;;
80270;SDS011;69573;45.560;10.200;2023-08-24T02:20:58;16.70;;;12.60;;
80270;SDS011;69573;45.560;10.200;2023-08-24T02:23:25;13.85;;;12.43;;
80270;SDS011;69573;45.560;10.200;2023-08-24T02:25:51;15.13;;;12.68;;
80270;SDS011;69573;45.560;10.200;2023-08-24T02:28:17;13.82;;;12.60;;
80270;SDS011;69573;45.560;10.200;2023-08-24T02:30:43;13.43;;;12.13;;
80270;SDS011;69573;45.560;10.200;2023-08-24T02:33:09;13.05;;;11.88;;
80270;SDS011;69573;45.560;10.200;2023-08-24T02:35:36;13.23;;;12.02;;
80270;SDS011;69573;45.560;10.200;2023-08-24T02:38:03;14.43;;;12.85;;
80270;SDS011;69573;45.560;10.200;2023-08-24T02:40:29;13.43;;;12.13;;
80270;SDS011;69573;45.560;10.200;2023-08-24T02:42:56;14.27;;;12.93;;
80270;SDS011;69573;45.560;10.200;2023-08-24T02:45:22;14.02;;;12.65;;
80270;SDS011;69573;45.560;10.200;2023-08-24T02:47:48;13.98;;;12.77;;
80270;SDS011;69573;45.560;10.200;2023-08-24T02:50:14;14.25;;;12.73;;
80270;SDS011;69573;45.560;10.200;2023-08-24T02:52:40;13.98;;;12.57;;
80270;SDS011;69573;45.560;10.200;2023-08-24T02:55:07;14.10;;;12.52;;
80270;SDS011;69573;45.560;10.200;2023-08-24T02:57:36;13.75;;;12.60;;
80270;SDS011;69573;45.560;10.200;2023-08-24T03:00:03;13.98;;;12.57;;
80270;SDS011;69573;45.560;10.200;2023-08-24T03:02:32;13.98;;;12.70;;
80270;SDS011;69573;45.560;10.200;2023-08-24T03:05:01;13.63;;;12.32;;
80270;SDS011;69573;45.560;10.200;2023-08-24T03:07:27;13.95;;;12.70;;
80270;SDS011;69573;45.560;10.200;2023-08-24T03:09:53;14.02;;;12.73;;
80270;SDS011;69573;45.560;10.200;2023-08-24T03:12:19;13.82;;;12.40;;
80270;SDS011;69573;45.560;10.200;2023-08-24T03:14:46;14.00;;;12.90;;
80270;SDS011;69573;45.560;10.200;2023-08-24T03:17:12;15.82;;;13.90;;
80270;SDS011;69573;45.560;10.200;2023-08-24T03:19:39;13.55;;;12.25;;
80270;SDS011;69573;45.560;10.200;2023-08-24T03:22:05;13.75;;;12.38;;
80270;SDS011;69573;45.560;10.200;2023-08-24T03:24:33;13.75;;;12.63;;
80270;SDS011;69573;45.560;10.200;2023-08-24T03:27:02;13.90;;;12.65;;
80270;SDS011;69573;45.560;10.200;2023-08-24T03:29:29;13.75;;;12.52;;
80270;SDS011;69573;45.560;10.200;2023-08-24T03:31:56;14.13;;;12.68;;
80270;SDS011;69573;45.560;10.200;2023-08-24T03:34:22;13.85;;;12.55;;
80270;SDS011;69573;45.560;10.200;2023-08-24T03:36:48;13.38;;;12.05;;
80270;SDS011;69573;45.560;10.200;2023-08-24T03:39:15;15.23;;;12.95;;
80270;SDS011;69573;45.560;10.200;2023-08-24T03:41:41;13.90;;;12.63;;
80270;SDS011;69573;45.560;10.200;2023-08-24T03:44:07;13.57;;;12.13;;
80270;SDS011;69573;45.560;10.200;2023-08-24T03:46:34;14.50;;;13.13;;
80270;SDS011;69573;45.560;10.200;2023-08-24T03:49:00;14.45;;;13.10;;
80270;SDS011;69573;45.560;10.200;2023-08-24T03:51:27;17.35;;;14.00;;
80270;SDS011;69573;45.560;10.200;2023-08-24T03:53:56;20.45;;;14.07;;
80270;SDS011;69573;45.560;10.200;2023-08-24T03:56:23;14.50;;;13.02;;
80270;SDS011;69573;45.560;10.200;2023-08-24T03:58:50;14.63;;;13.18;;
80270;SDS011;69573;45.560;10.200;2023-08-24T04:01:16;16.55;;;13.13;;
80270;SDS011;69573;45.560;10.200;2023-08-24T04:03:42;15.90;;;13.13;;
80270;SDS011;69573;45.560;10.200;2023-08-24T04:06:09;15.95;;;13.82;;
80270;SDS011;69573;45.560;10.200;2023-08-24T04:08:35;14.23;;;12.77;;
80270;SDS011;69573;45.560;10.200;2023-08-24T04:11:02;13.77;;;12.57;;
80270;SDS011;69573;45.560;10.200;2023-08-24T04:13:28;15.80;;;13.43;;
80270;SDS011;69573;45.560;10.200;2023-08-24T04:15:54;14.10;;;12.90;;
80270;SDS011;69573;45.560;10.200;2023-08-24T04:18:21;14.45;;;13.15;;
80270;SDS011;69573;45.560;10.200;2023-08-24T04:20:47;14.02;;;12.75;;
80270;SDS011;69573;45.560;10.200;2023-08-24T04:23:16;13.38;;;12.07;;
80270;SDS011;69573;45.560;10.200;2023-08-24T04:28:09;14.27;;;13.07;;
80270;SDS011;69573;45.560;10.200;2023-08-24T04:30:35;14.40;;;13.02;;
80270;SDS011;69573;45.560;10.200;2023-08-24T04:33:02;14.13;;;12.82;;
80270;SDS011;69573;45.560;10.200;2023-08-24T04:35:29;19.37;;;13.47;;
80270;SDS011;69573;45.560;10.200;2023-08-24T04:37:55;14.48;;;13.02;;
80270;SDS011;69573;45.560;10.200;2023-08-24T04:40:22;14.00;;;12.55;;
80270;SDS011;69573;45.560;10.200;2023-08-24T04:42:49;14.38;;;12.88;;
80270;SDS011;69573;45.560;10.200;2023-08-24T04:45:18;15.88;;;12.55;;
80270;SDS011;69573;45.560;10.200;2023-08-24T04:47:44;14.50;;;13.07;;
80270;SDS011;69573;45.560;10.200;2023-08-24T04:50:11;14.75;;;12.75;;
80270;SDS011;69573;45.560;10.200;2023-08-24T04:52:38;13.40;;;12.13;;
80270;SDS011;69573;45.560;10.200;2023-08-24T04:55:05;14.63;;;13.18;;
80270;SDS011;69573;45.560;10.200;2023-08-24T04:57:32;14.10;;;12.65;;
80270;SDS011;69573;45.560;10.200;2023-08-24T04:59:58;14.80;;;13.50;;
80270;SDS011;69573;45.560;10.200;2023-08-24T05:02:24;14.07;;;12.65;;
80270;SDS011;69573;45.560;10.200;2023-08-24T05:04:51;14.25;;;12.82;;
80270;SDS011;69573;45.560;10.200;2023-08-24T05:07:17;16.42;;;13.32;;
80270;SDS011;69573;45.560;10.200;2023-08-24T05:09:43;14.40;;;13.05;;
80270;SDS011;69573;45.560;10.200;2023-08-24T05:12:11;13.93;;;12.63;;
80270;SDS011;69573;45.560;10.200;2023-08-24T05:14:41;14.02;;;12.88;;
80270;SDS011;69573;45.560;10.200;2023-08-24T05:17:07;16.55;;;13.05;;
80270;SDS011;69573;45.560;10.200;2023-08-24T05:19:34;14.30;;;12.77;;
80270;SDS011;69573;45.560;10.200;2023-08-24T05:22:00;13.27;;;12.00;;
80270;SDS011;69573;45.560;10.200;2023-08-24T05:24:28;13.55;;;12.25;;
80270;SDS011;69573;45.560;10.200;2023-08-24T05:26:54;14.35;;;12.93;;
80270;SDS011;69573;45.560;10.200;2023-08-24T05:29:21;14.93;;;13.05;;
80270;SDS011;69573;45.560;10.200;2023-08-24T05:31:47;15.20;;;12.68;;
80270;SDS011;69573;45.560;10.200;2023-08-24T05:34:13;13.60;;;12.30;;
80270;SDS011;69573;45.560;10.200;2023-08-24T05:36:39;14.25;;;12.68;;
80270;SDS011;69573;45.560;10.200;2023-08-24T05:39:05;14.13;;;12.77;;
80270;SDS011;69573;45.560;10.200;2023-08-24T05:41:32;16.77;;;13.40;;
80270;SDS011;69573;45.560;10.200;2023-08-24T05:44:02;13.38;;;12.13;;
80270;SDS011;69573;45.560;10.200;2023-08-24T05:46:28;14.35;;;12.90;;
80270;SDS011;69573;45.560;10.200;2023-08-24T05:48:55;14.85;;;13.02;;
80270;SDS011;69573;45.560;10.200;2023-08-24T05:51:22;15.23;;;13.63;;
80270;SDS011;69573;45.560;10.200;2023-08-24T05:53:51;15.35;;;13.45;;
80270;SDS011;69573;45.560;10.200;2023-08-24T05:56:24;15.43;;;13.13;;
80270;SDS011;69573;45.560;10.200;2023-08-24T05:58:50;14.50;;;13.00;;
80270;SDS011;69573;45.560;10.200;2023-08-24T06:01:16;13.82;;;12.45;;
80270;SDS011;69573;45.560;10.200;2023-08-24T06:03:43;13.38;;;12.02;;
80270;SDS011;69573;45.560;10.200;2023-08-24T06:06:09;13.90;;;12.50;;
80270;SDS011;69573;45.560;10.200;2023-08-24T06:08:36;13.90;;;12.20;;
80270;SDS011;69573;45.560;10.200;2023-08-24T06:11:02;14.80;;;13.40;;
80270;SDS011;69573;45.560;10.200;2023-08-24T06:13:28;16.48;;;12.60;;
80270;SDS011;69573;45.560;10.200;2023-08-24T06:15:55;14.38;;;13.18;;
80270;SDS011;69573;45.560;10.200;2023-08-24T06:18:21;13.57;;;12.13;;
80270;SDS011;69573;45.560;10.200;2023-08-24T06:20:47;14.07;;;12.73;;
80270;SDS011;69573;45.560;10.200;2023-08-24T06:23:16;15.40;;;13.85;;
80270;SDS011;69573;45.560;10.200;2023-08-24T06:25:43;17.15;;;13.02;;
80270;SDS011;69573;45.560;10.200;2023-08-24T06:28:10;19.30;;;13.25;;
80270;SDS011;69573;45.560;10.200;2023-08-24T06:30:39;14.68;;;13.32;;
80270;SDS011;69573;45.560;10.200;2023-08-24T06:33:06;17.02;;;12.18;;
80270;SDS011;69573;45.560;10.200;2023-08-24T06:35:32;14.05;;;12.30;;
80270;SDS011;69573;45.560;10.200;2023-08-24T06:37:59;16.38;;;13.13;;
80270;SDS011;69573;45.560;10.200;2023-08-24T06:40:29;13.60;;;12.40;;
80270;SDS011;69573;45.560;10.200;2023-08-24T06:42:55;16.35;;;12.25;;
80270;SDS011;69573;45.560;10.200;2023-08-24T06:45:21;12.77;;;11.48;;
80270;SDS011;69573;45.560;10.200;2023-08-24T06:47:48;14.15;;;12.85;;
80270;SDS011;69573;45.560;10.200;2023-08-24T06:50:14;15.68;;;12.35;;
80270;SDS011;69573;45.560;10.200;2023-08-24T06:52:41;14.95;;;12.20;;
80270;SDS011;69573;45.560;10.200;2023-08-24T06:55:08;14.18;;;11.65;;
80270;SDS011;69573;45.560;10.200;2023-08-24T06:57:35;13.23;;;12.00;;
80270;SDS011;69573;45.560;10.200;2023-08-24T07:00:02;20.58;;;12.45;;
80270;SDS011;69573;45.560;10.200;2023-08-24T07:02:32;15.00;;;12.02;;
80270;SDS011;69573;45.560;10.200;2023-08-24T07:04:58;19.30;;;12.20;;
80270;SDS011;69573;45.560;10.200;2023-08-24T07:07:28;14.13;;;12.60;;
80270;SDS011;69573;45.560;10.200;2023-08-24T07:09:55;15.75;;;12.30;;
80270;SDS011;69573;45.560;10.200;2023-08-24T07:12:21;12.55;;;11.55;;
80270;SDS011;69573;45.560;10.200;2023-08-24T07:14:48;12.77;;;11.55;;
80270;SDS011;69573;45.560;10.200;2023-08-24T07:17:15;13.15;;;11.93;;
80270;SDS011;69573;45.560;10.200;2023-08-24T07:19:41;12.52;;;11.38;;
80270;SDS011;69573;45.560;10.200;2023-08-24T07:22:08;13.77;;;11.85;;
80270;SDS011;69573;45.560;10.200;2023-08-24T07:24:34;15.52;;;12.00;;
80270;SDS011;69573;45.560;10.200;2023-08-24T07:27:01;16.15;;;11.70;;
80270;SDS011;69573;45.560;10.200;2023-08-24T07:29:31;13.05;;;11.82;;
80270;SDS011;69573;45.560;10.200;2023-08-24T07:31:57;15.63;;;11.40;;
80270;SDS011;69573;45.560;10.200;2023-08-24T07:34:23;13.63;;;12.02;;
80270;SDS011;69573;45.560;10.200;2023-08-24T07:36:50;14.93;;;11.57;;
80270;SDS011;69573;45.560;10.200;2023-08-24T07:39:16;13.80;;;11.60;;
80270;SDS011;69573;45.560;10.200;2023-08-24T07:41:42;12.50;;;11.23;;
80270;SDS011;69573;45.560;10.200;2023-08-24T07:44:09;12.68;;;11.57;;
80270;SDS011;69573;45.560;10.200;2023-08-24T07:46:35;12.65;;;11.35;;
80270;SDS011;69573;45.560;10.200;2023-08-24T07:49:02;13.55;;;10.75;;
80270;SDS011;69573;45.560;10.200;2023-08-24T07:51:28;14.45;;;12.00;;
80270;SDS011;69573;45.560;10.200;2023-08-24T07:53:54;16.23;;;12.75;;
80270;SDS011;69573;45.560;10.200;2023-08-24T07:56:20;13.30;;;11.93;;
80270;SDS011;69573;45.560;10.200;2023-08-24T07:58:48;13.02;;;10.25;;
80270;SDS011;69573;45.560;10.200;2023-08-24T08:01:14;15.65;;;10.30;;
80270;SDS011;69573;45.560;10.200;2023-08-24T08:03:40;13.65;;;10.70;;
80270;SDS011;69573;45.560;10.200;2023-08-24T08:06:07;11.55;;;10.27;;
80270;SDS011;69573;45.560;10.200;2023-08-24T08:08:33;16.38;;;11.32;;
80270;SDS011;69573;45.560;10.200;2023-08-24T08:11:00;11.50;;;10.50;;
80270;SDS011;69573;45.560;10.200;2023-08-24T08:13:27;14.32;;;10.35;;
80270;SDS011;69573;45.560;10.200;2023-08-24T08:15:54;11.65;;;10.45;;
80270;SDS011;69573;45.560;10.200;2023-08-24T08:18:26;13.73;;;11.05;;
80270;SDS011;69573;45.560;10.200;2023-08-24T08:20:52;12.35;;;11.02;;
80270;SDS011;69573;45.560;10.200;2023-08-24T08:23:19;20.13;;;11.75;;
80270;SDS011;69573;45.560;10.200;2023-08-24T08:25:46;11.23;;;10.18;;
80270;SDS011;69573;45.560;10.200;2023-08-24T08:28:12;12.07;;;10.77;;
80270;SDS011;69573;45.560;10.200;2023-08-24T08:30:38;11.88;;;10.68;;
80270;SDS011;69573;45.560;10.200;2023-08-24T08:33:05;11.82;;;10.50;;
80270;SDS011;69573;45.560;10.200;2023-08-24T08:35:34;11.52;;;10.38;;
80270;SDS011;69573;45.560;10.200;2023-08-24T08:38:00;12.73;;;10.90;;
80270;SDS011;69573;45.560;10.200;2023-08-24T08:40:27;12.23;;;10.73;;
80270;SDS011;69573;45.560;10.200;2023-08-24T08:42:57;13.20;;;9.95;;
80270;SDS011;69573;45.560;10.200;2023-08-24T08:45:26;11.85;;;10.75;;
80270;SDS011;69573;45.560;10.200;2023-08-24T08:47:57;11.13;;;10.23;;
80270;SDS011;69573;45.560;10.200;2023-08-24T08:50:24;11.70;;;10.57;;
80270;SDS011;69573;45.560;10.200;2023-08-24T08:52:51;11.07;;;9.75;;
80270;SDS011;69573;45.560;10.200;2023-08-24T08:55:17;11.57;;;9.88;;
80270;SDS011;69573;45.560;10.200;2023-08-24T08:57:44;14.95;;;10.68;;
80270;SDS011;69573;45.560;10.200;2023-08-24T09:00:12;11.30;;;9.77;;
80270;SDS011;69573;45.560;10.200;2023-08-24T09:02:39;11.00;;;9.73;;
80270;SDS011;69573;45.560;10.200;2023-08-24T09:05:07;11.50;;;9.40;;
80270;SDS011;69573;45.560;10.200;2023-08-24T09:07:34;12.75;;;9.15;;
80270;SDS011;69573;45.560;10.200;2023-08-24T09:10:01;11.48;;;9.02;;
80270;SDS011;69573;45.560;10.200;2023-08-24T09:12:32;10.37;;;9.37;;
80270;SDS011;69573;45.560;10.200;2023-08-24T09:14:58;11.70;;;8.88;;
80270;SDS011;69573;45.560;10.200;2023-08-24T09:17:25;12.27;;;8.88;;
80270;SDS011;69573;45.560;10.200;2023-08-24T09:19:53;9.73;;;8.68;;
80270;SDS011;69573;45.560;10.200;2023-08-24T09:22:23;10.00;;;9.02;;
80270;SDS011;69573;45.560;10.200;2023-08-24T09:24:49;9.43;;;8.02;;
80270;SDS011;69573;45.560;10.200;2023-08-24T09:27:17;12.23;;;9.13;;
80270;SDS011;69573;45.560;10.200;2023-08-24T09:29:47;11.60;;;9.75;;
80270;SDS011;69573;45.560;10.200;2023-08-24T09:32:14;13.43;;;10.27;;
80270;SDS011;69573;45.560;10.200;2023-08-24T09:34:40;15.00;;;10.07;;
80270;SDS011;69573;45.560;10.200;2023-08-24T09:37:14;15.07;;;11.35;;
80270;SDS011;69573;45.560;10.200;2023-08-24T09:39:41;13.85;;;10.57;;
80270;SDS011;69573;45.560;10.200;2023-08-24T09:42:07;13.40;;;10.40;;
80270;SDS011;69573;45.560;10.200;2023-08-24T09:44:34;13.70;;;10.18;;
80270;SDS011;69573;45.560;10.200;2023-08-24T09:47:00;11.10;;;9.90;;
80270;SDS011;69573;45.560;10.200;2023-08-24T09:49:28;11.93;;;10.68;;
80270;SDS011;69573;45.560;10.200;2023-08-24T09:51:57;13.75;;;10.55;;
80270;SDS011;69573;45.560;10.200;2023-08-24T09:54:27;14.43;;;11.25;;
80270;SDS011;69573;45.560;10.200;2023-08-24T09:56:54;12.98;;;11.38;;
80270;SDS011;69573;45.560;10.200;2023-08-24T09:59:21;13.98;;;11.18;;
80270;SDS011;69573;45.560;10.200;2023-08-24T10:01:50;13.25;;;10.68;;
80270;SDS011;69573;45.560;10.200;2023-08-24T10:04:25;17.08;;;11.80;;
80270;SDS011;69573;45.560;10.200;2023-08-24T10:07:28;15.87;;;13.20;;
80270;SDS011;69573;45.560;10.200;2023-08-24T10:09:50;14.90;;;12.05;;
80270;SDS011;69573;45.560;10.200;2023-08-24T10:12:18;18.60;;;12.20;;
80270;SDS011;69573;45.560;10.200;2023-08-24T10:14:47;16.40;;;11.73;;
80270;SDS011;69573;45.560;10.200;2023-08-24T10:17:17;20.60;;;13.80;;
80270;SDS011;69573;45.560;10.200;2023-08-24T10:19:44;14.45;;;12.95;;
80270;SDS011;69573;45.560;10.200;2023-08-24T10:22:12;12.60;;;11.32;;
80270;SDS011;69573;45.560;10.200;2023-08-24T10:24:38;15.80;;;10.52;;
80270;SDS011;69573;45.560;10.200;2023-08-24T10:27:05;13.93;;;11.10;;
80270;SDS011;69573;45.560;10.200;2023-08-24T10:29:32;14.15;;;12.80;;
80270;SDS011;69573;45.560;10.200;2023-08-24T10:32:00;14.05;;;11.88;;
80270;SDS011;69573;45.560;10.200;2023-08-24T10:34:28;12.73;;;10.60;;
80270;SDS011;69573;45.560;10.200;2023-08-24T10:36:54;12.65;;;11.45;;
80270;SDS011;69573;45.560;10.200;2023-08-24T10:39:28;13.13;;;11.82;;
80270;SDS011;69573;45.560;10.200;2023-08-24T10:41:55;11.52;;;9.95;;
80270;SDS011;69573;45.560;10.200;2023-08-24T10:49:32;15.13;;;10.75;;
80270;SDS011;69573;45.560;10.200;2023-08-24T10:52:16;12.40;;;10.30;;
80270;SDS011;69573;45.560;10.200;2023-08-24T10:54:43;10.52;;;9.65;;
80270;SDS011;69573;45.560;10.200;2023-08-24T10:57:26;15.43;;;9.93;;
80270;SDS011;69573;45.560;10.200;2023-08-24T10:59:57;11.73;;;9.75;;
80270;SDS011;69573;45.560;10.200;2023-08-24T11:02:24;16.55;;;9.75;;
80270;SDS011;69573;45.560;10.200;2023-08-24T11:05:03;14.52;;;9.90;;
80270;SDS011;69573;45.560;10.200;2023-08-24T11:07:30;11.50;;;9.20;;
80270;SDS011;69573;45.560;10.200;2023-08-24T11:09:57;11.32;;;9.35;;
80270;SDS011;69573;45.560;10.200;2023-08-24T11:12:26;15.43;;;8.90;;
80270;SDS011;69573;45.560;10.200;2023-08-24T11:14:53;13.52;;;9.52;;
80270;SDS011;69573;45.560;10.200;2023-08-24T11:17:23;10.77;;;8.57;;
80270;SDS011;69573;45.560;10.200;2023-08-24T11:19:50;10.25;;;9.18;;
80270;SDS011;69573;45.560;10.200;2023-08-24T11:22:17;9.77;;;8.75;;
80270;SDS011;69573;45.560;10.200;2023-08-24T11:24:43;11.48;;;8.68;;
80270;SDS011;69573;45.560;10.200;2023-08-24T11:27:10;13.65;;;9.02;;
80270;SDS011;69573;45.560;10.200;2023-08-24T11:29:36;10.52;;;9.43;;
80270;SDS011;69573;45.560;10.200;2023-08-24T11:32:02;12.02;;;9.00;;
80270;SDS011;69573;45.560;10.200;2023-08-24T11:34:32;13.45;;;8.48;;
80270;SDS011;69573;45.560;10.200;2023-08-24T11:37:00;12.88;;;8.75;;
80270;SDS011;69573;45.560;10.200;2023-08-24T11:39:27;9.18;;;8.25;;
80270;SDS011;69573;45.560;10.200;2023-08-24T11:42:03;13.32;;;8.60;;
80270;SDS011;69573;45.560;10.200;2023-08-24T11:44:44;10.30;;;8.98;;
80270;SDS011;69573;45.560;10.200;2023-08-24T11:47:13;9.77;;;8.80;;
80270;SDS011;69573;45.560;10.200;2023-08-24T11:49:40;9.68;;;8.50;;
80270;SDS011;69573;45.560;10.200;2023-08-24T11:52:07;13.25;;;8.90;;
80270;SDS011;69573;45.560;10.200;2023-08-24T11:54:34;10.48;;;8.85;;
80270;SDS011;69573;45.560;10.200;2023-08-24T11:59:29;10.80;;;9.27;;
80270;SDS011;69573;45.560;10.200;2023-08-24T12:01:56;10.70;;;9.60;;
80270;SDS011;69573;45.560;10.200;2023-08-24T12:04:22;9.77;;;8.75;;
80270;SDS011;69573;45.560;10.200;2023-08-24T12:06:49;11.27;;;8.73;;
80270;SDS011;69573;45.560;10.200;2023-08-24T12:09:16;9.70;;;7.82;;
80270;SDS011;69573;45.560;10.200;2023-08-24T12:11:42;9.10;;;8.23;;
80270;SDS011;69573;45.560;10.200;2023-08-24T12:14:16;10.18;;;8.23;;
80270;SDS011;69573;45.560;10.200;2023-08-24T12:16:42;13.25;;;8.07;;
80270;SDS011;69573;45.560;10.200;2023-08-24T12:19:08;12.27;;;8.23;;
80270;SDS011;69573;45.560;10.200;2023-08-24T12:21:35;13.27;;;9.13;;
80270;SDS011;69573;45.560;10.200;2023-08-24T12:24:02;13.52;;;8.25;;
80270;SDS011;69573;45.560;10.200;2023-08-24T12:26:34;11.05;;;8.52;;
80270;SDS011;69573;45.560;10.200;2023-08-24T12:29:05;9.75;;;8.50;;
80270;SDS011;69573;45.560;10.200;2023-08-24T12:31:32;12.23;;;8.38;;
80270;SDS011;69573;45.560;10.200;2023-08-24T12:34:07;9.25;;;8.35;;
80270;SDS011;69573;45.560;10.200;2023-08-24T12:36:35;12.25;;;8.55;;
80270;SDS011;69573;45.560;10.200;2023-08-24T12:39:01;12.50;;;8.90;;
80270;SDS011;69573;45.560;10.200;2023-08-24T12:41:29;9.07;;;8.13;;
80270;SDS011;69573;45.560;10.200;2023-08-24T12:43:55;10.88;;;8.20;;
80270;SDS011;69573;45.560;10.200;2023-08-24T12:46:22;9.02;;;8.15;;
80270;SDS011;69573;45.560;10.200;2023-08-24T12:48:49;9.73;;;7.53;;
80270;SDS011;69573;45.560;10.200;2023-08-24T12:51:15;12.43;;;8.30;;
80270;SDS011;69573;45.560;10.200;2023-08-24T12:53:41;8.48;;;7.57;;
80270;SDS011;69573;45.560;10.200;2023-08-24T12:56:07;9.77;;;8.13;;
80270;SDS011;69573;45.560;10.200;2023-08-24T12:58:34;10.10;;;7.72;;
80270;SDS011;69573;45.560;10.200;2023-08-24T13:01:00;10.40;;;7.93;;
80270;SDS011;69573;45.560;10.200;2023-08-24T13:03:27;11.38;;;8.10;;
80270;SDS011;69573;45.560;10.200;2023-08-24T13:05:53;8.65;;;7.72;;
80270;SDS011;69573;45.560;10.200;2023-08-24T13:08:20;9.77;;;7.70;;
80270;SDS011;69573;45.560;10.200;2023-08-24T13:10:46;8.85;;;7.95;;
80270;SDS011;69573;45.560;10.200;2023-08-24T13:13:13;8.93;;;7.05;;
80270;SDS011;69573;45.560;10.200;2023-08-24T13:15:39;11.50;;;6.85;;
80270;SDS011;69573;45.560;10.200;2023-08-24T13:18:05;8.50;;;6.88;;
80270;SDS011;69573;45.560;10.200;2023-08-24T13:20:32;9.40;;;6.72;;
80270;SDS011;69573;45.560;10.200;2023-08-24T13:22:58;10.38;;;7.80;;
80270;SDS011;69573;45.560;10.200;2023-08-24T13:25:24;8.73;;;7.47;;
80270;SDS011;69573;45.560;10.200;2023-08-24T13:27:51;8.18;;;7.18;;
80270;SDS011;69573;45.560;10.200;2023-08-24T13:30:18;10.60;;;7.68;;
80270;SDS011;69573;45.560;10.200;2023-08-24T13:32:45;8.70;;;7.88;;
80270;SDS011;69573;45.560;10.200;2023-08-24T13:35:11;11.00;;;7.18;;
80270;SDS011;69573;45.560;10.200;2023-08-24T13:37:37;7.68;;;6.80;;
80270;SDS011;69573;45.560;10.200;2023-08-24T13:40:04;8.73;;;7.53;;
80270;SDS011;69573;45.560;10.200;2023-08-24T13:42:30;8.52;;;7.65;;
80270;SDS011;69573;45.560;10.200;2023-08-24T13:44:57;11.63;;;7.32;;
80270;SDS011;69573;45.560;10.200;2023-08-24T13:47:24;11.15;;;7.20;;
80270;SDS011;69573;45.560;10.200;2023-08-24T13:49:50;8.98;;;7.43;;
80270;SDS011;69573;45.560;10.200;2023-08-24T13:52:16;7.53;;;6.80;;
80270;SDS011;69573;45.560;10.200;2023-08-24T13:54:44;10.13;;;7.13;;
80270;SDS011;69573;45.560;10.200;2023-08-24T13:57:10;7.93;;;6.72;;
80270;SDS011;69573;45.560;10.200;2023-08-24T13:59:36;10.38;;;6.63;;
80270;SDS011;69573;45.560;10.200;2023-08-24T14:02:04;8.10;;;7.30;;
80270;SDS011;69573;45.560;10.200;2023-08-24T14:04:30;9.40;;;7.20;;
80270;SDS011;69573;45.560;10.200;2023-08-24T14:06:57;8.30;;;7.05;;
80270;SDS011;69573;45.560;10.200;2023-08-24T14:09:23;9.50;;;7.13;;
80270;SDS011;69573;45.560;10.200;2023-08-24T14:11:49;7.88;;;7.03;;
80270;SDS011;69573;45.560;10.200;2023-08-24T14:14:16;8.27;;;7.45;;
80270;SDS011;69573;45.560;10.200;2023-08-24T14:16:42;12.00;;;7.18;;
80270;SDS011;69573;45.560;10.200;2023-08-24T14:19:09;9.43;;;7.18;;
80270;SDS011;69573;45.560;10.200;2023-08-24T14:21:35;11.32;;;7.13;;
80270;SDS011;69573;45.560;10.200;2023-08-24T14:24:02;11.40;;;7.07;;
80270;SDS011;69573;45.560;10.200;2023-08-24T14:26:28;9.13;;;6.72;;